Time;durP1;ratioP1;P1;durP2;ratioP2;P2;SDS_P1;SDS_P2;PMS_P1;PMS_P2;Temp;Humidity;BMP_temperature;BMP_pressure;BME280_temperature;BME280_humidity;BME280_pressure;Samples;Min_cycle;Max_cycle;Signal;HPM_P1;HPM_P2
2023/10/08 00:03:13;;;;;;;19.08;4.78;;;;;;;18.43;100.00;102142.34;5056549;28;20059;-73
2023/10/08 00:05:41;;;;;;;17.80;5.22;;;;;;;18.44;100.00;102149.31;5055295;28;20049;-74
2023/10/08 00:08:09;;;;;;;22.92;4.85;;;;;;;18.43;100.00;102152.16;5042910;28;20059;-73
2023/10/08 00:10:42;;;;;;;14.75;4.38;;;;;;;18.45;100.00;102168.75;5048029;28;20405;-73
2023/10/08 00:13:10;;;;;;;19.23;5.00;;;;;;;18.41;100.00;102167.44;5035137;28;20052;-74
2023/10/08 00:15:36;;;;;;;25.27;5.53;;;;;;;18.36;100.00;102166.06;5046204;28;20049;-73
2023/10/08 00:18:04;;;;;;;19.90;4.60;;;;;;;18.38;100.00;102160.59;5038219;28;20103;-73
2023/10/08 00:21:37;;;;;;;18.90;5.25;;;;;;;18.37;100.00;102157.13;5052319;28;20101;-72
2023/10/08 00:23:30;;;;;;;14.63;4.25;;;;;;;18.33;100.00;102162.94;5035661;28;20136;-73
2023/10/08 00:25:58;;;;;;;21.27;4.25;;;;;;;18.35;100.00;102175.06;5057696;28;20052;-74
2023/10/08 00:28:28;;;;;;;22.52;4.70;;;;;;;18.33;100.00;102168.25;5050715;28;20132;-73
2023/10/08 00:30:55;;;;;;;15.05;4.82;;;;;;;18.36;100.00;102184.66;5048443;28;20049;-74
2023/10/08 00:33:22;;;;;;;16.80;4.45;;;;;;;18.35;100.00;102176.91;5056787;28;20048;-73
2023/10/08 00:35:49;;;;;;;17.15;4.18;;;;;;;18.36;100.00;102186.50;5051373;28;20060;-73
2023/10/08 00:38:20;;;;;;;21.67;4.90;;;;;;;18.40;100.00;102194.97;5053163;28;20053;-73
2023/10/08 00:40:50;;;;;;;18.77;4.65;;;;;;;18.42;100.00;102190.34;5042762;28;20385;-73
2023/10/08 00:43:36;;;;;;;17.10;4.90;;;;;;;18.43;100.00;102192.00;5039256;28;20052;-73
2023/10/08 00:46:04;;;;;;;23.73;4.47;;;;;;;18.44;100.00;102194.47;5048292;28;20337;-73
2023/10/08 00:48:35;;;;;;;16.55;4.68;;;;;;;18.40;100.00;102201.13;5042770;28;20052;-73
2023/10/08 00:54:07;;;;;;;19.58;5.03;;;;;;;18.37;100.00;102178.38;5041490;28;20696;-74
2023/10/08 00:56:57;;;;;;;17.33;4.43;;;;;;;18.35;100.00;102177.72;5048218;28;20052;-73
2023/10/08 00:59:33;;;;;;;24.83;5.03;;;;;;;18.31;100.00;102181.69;5038440;28;20053;-73
2023/10/08 01:02:05;;;;;;;15.30;4.65;;;;;;;18.31;100.00;102164.94;5058136;28;20063;-74
2023/10/08 01:04:37;;;;;;;14.45;4.60;;;;;;;18.27;100.00;102172.41;5057942;28;20119;-73
2023/10/08 01:07:15;;;;;;;21.90;5.20;;;;;;;18.31;100.00;102167.59;5058180;28;20486;-74
2023/10/08 01:09:48;;;;;;;23.13;5.10;;;;;;;18.32;100.00;102170.06;5054611;28;20134;-73
2023/10/08 01:12:33;;;;;;;19.73;4.75;;;;;;;18.32;100.00;102167.41;5056522;28;20135;-74
2023/10/08 01:15:16;;;;;;;21.23;5.22;;;;;;;18.36;100.00;102166.06;5052504;28;20052;-73
2023/10/08 01:17:51;;;;;;;21.95;5.38;;;;;;;18.30;100.00;102158.78;5052304;28;20151;-73
2023/10/08 01:20:49;;;;;;;17.45;5.00;;;;;;;18.33;100.00;102166.44;5057487;28;20076;-73
2023/10/08 01:23:20;;;;;;;18.23;5.07;;;;;;;18.29;100.00;102159.78;5047632;28;20083;-73
2023/10/08 01:25:52;;;;;;;21.85;5.30;;;;;;;18.22;100.00;102152.63;5050429;28;20495;-73
2023/10/08 01:28:33;;;;;;;20.25;5.13;;;;;;;18.13;100.00;102151.78;5051362;28;20171;-73
2023/10/08 01:31:03;;;;;;;19.67;5.35;;;;;;;18.07;100.00;102150.63;5046907;28;20057;-73
2023/10/08 01:33:38;;;;;;;18.23;4.90;;;;;;;18.09;100.00;102155.75;5044992;28;20783;-74
2023/10/08 01:36:08;;;;;;;26.08;5.95;;;;;;;18.07;100.00;102160.41;5061855;28;20049;-73
2023/10/08 01:38:34;;;;;;;21.90;6.50;;;;;;;18.00;100.00;102156.75;5051837;28;20059;-73
2023/10/08 01:41:18;;;;;;;26.73;6.95;;;;;;;17.95;100.00;102155.44;5045955;28;20060;-73
2023/10/08 01:43:46;;;;;;;25.67;8.32;;;;;;;17.90;100.00;102136.50;5056024;28;20135;-73
2023/10/08 01:46:13;;;;;;;24.20;8.75;;;;;;;17.94;100.00;102145.78;5042174;28;20045;-73
2023/10/08 01:48:39;;;;;;;31.27;10.20;;;;;;;18.01;100.00;102161.88;5057066;28;20052;-73
2023/10/08 01:51:11;;;;;;;29.73;9.88;;;;;;;17.91;100.00;102143.44;5050209;28;20052;-74
2023/10/08 01:53:38;;;;;;;36.50;10.10;;;;;;;17.95;100.00;102155.44;5051764;28;20056;-73
2023/10/08 01:56:05;;;;;;;29.33;9.13;;;;;;;17.95;100.00;102158.09;5047423;28;20168;-73
2023/10/08 01:58:35;;;;;;;27.80;8.60;;;;;;;18.01;100.00;102163.72;5045849;28;20056;-74
2023/10/08 02:01:01;;;;;;;32.08;9.38;;;;;;;18.02;100.00;102170.69;5062057;28;20132;-73
2023/10/08 02:03:27;;;;;;;26.40;7.80;;;;;;;18.02;100.00;102166.22;5044524;28;20088;-73
2023/10/08 02:05:58;;;;;;;27.00;9.23;;;;;;;18.08;100.00;102185.97;5052801;28;20199;-73
2023/10/08 02:08:26;;;;;;;23.60;7.53;;;;;;;18.10;100.00;102181.34;5046940;28;20049;-74
2023/10/08 02:10:52;;;;;;;24.65;8.13;;;;;;;18.10;100.00;102181.34;5050348;28;20463;-74
2023/10/08 02:13:19;;;;;;;22.17;7.70;;;;;;;-145.50;100.00;65435.88;5062223;28;21126;-73
2023/10/08 02:15:53;;;;;;;25.48;8.13;;;;;;;-145.50;100.00;65435.88;5046211;28;20064;-73
2023/10/08 02:18:23;;;;;;;26.55;7.28;;;;;;;-145.50;100.00;65435.88;5060163;28;20115;-74
2023/10/08 02:20:50;;;;;;;22.10;6.80;;;;;;;-145.50;100.00;65435.88;5044377;28;20202;-73
2023/10/08 02:23:18;;;;;;;27.08;7.07;;;;;;;-145.50;100.00;65435.88;5044924;28;20417;-74
2023/10/08 02:25:44;;;;;;;17.73;6.50;;;;;;;-145.50;100.00;65435.88;5045634;28;20053;-74
2023/10/08 02:28:15;;;;;;;21.80;6.40;;;;;;;-145.50;100.00;65435.88;5042881;28;20064;-73
2023/10/08 02:30:42;;;;;;;17.83;6.15;;;;;;;-145.50;100.00;65435.88;5055930;28;20052;-73
2023/10/08 02:33:15;;;;;;;25.08;6.40;;;;;;;-145.50;100.00;65435.88;5046191;28;20521;-74
2023/10/08 02:35:44;;;;;;;17.13;6.15;;;;;;;-145.50;100.00;65435.88;5058666;28;20087;-74
2023/10/08 02:38:16;;;;;;;18.73;6.47;;;;;;;-145.50;100.00;65435.88;5041422;28;20580;-73
2023/10/08 02:40:46;;;;;;;18.33;5.88;;;;;;;-145.50;100.00;65435.88;5048376;28;20474;-73
2023/10/08 02:43:15;;;;;;;16.83;5.57;;;;;;;-145.50;100.00;65435.88;5047764;28;20106;-73
2023/10/08 02:45:44;;;;;;;23.90;5.82;;;;;;;-145.50;100.00;65435.88;5063392;28;20501;-73
2023/10/08 02:48:14;;;;;;;15.15;4.93;;;;;;;-145.50;100.00;65435.88;5047312;28;20747;-73
2023/10/08 02:50:44;;;;;;;17.00;6.18;;;;;;;-145.50;100.00;65435.88;5048462;28;20519;-73
2023/10/08 02:53:11;;;;;;;15.32;5.57;;;;;;;-145.50;100.00;65435.88;5049913;28;20469;-71
2023/10/08 02:55:43;;;;;;;19.60;5.68;;;;;;;-145.50;100.00;65435.88;5043273;28;20056;-73
2023/10/08 02:58:14;;;;;;;16.50;6.40;;;;;;;-145.50;100.00;65435.88;5063380;28;20056;-73
2023/10/08 03:00:48;;;;;;;15.98;5.80;;;;;;;-145.50;100.00;65435.88;5053759;28;20056;-74
2023/10/08 03:03:16;;;;;;;19.17;5.50;;;;;;;-145.50;100.00;65435.88;5052970;28;20106;-73
2023/10/08 03:05:47;;;;;;;19.67;5.80;;;;;;;-145.50;100.00;65435.88;5044206;28;20140;-73
2023/10/08 03:08:19;;;;;;;20.98;6.45;;;;;;;-145.50;100.00;65435.88;5056146;28;20480;-74
2023/10/08 03:10:55;;;;;;;16.98;6.03;;;;;;;-145.50;100.00;65435.88;5048388;28;20044;-74
2023/10/08 03:13:22;;;;;;;17.35;6.07;;;;;;;-145.50;100.00;65435.88;5054655;28;20152;-74
2023/10/08 03:18:36;;;;;;;14.80;6.15;;;;;;;-145.50;100.00;65435.88;5051477;28;20048;-73
2023/10/08 03:21:19;;;;;;;19.27;6.28;;;;;;;-145.50;100.00;65435.88;5050876;28;20053;-73
2023/10/08 03:23:56;;;;;;;19.42;6.95;;;;;;;-145.50;100.00;65435.88;5046944;28;20053;-73
2023/10/08 03:26:33;;;;;;;16.15;5.88;;;;;;;-145.50;100.00;65435.88;5049115;28;20121;-73
2023/10/08 03:29:05;;;;;;;18.10;6.28;;;;;;;-145.50;100.00;65435.88;5060148;28;20519;-73
2023/10/08 03:31:54;;;;;;;13.15;5.35;;;;;;;-145.50;100.00;65435.88;5047361;28;20049;-73
2023/10/08 03:34:19;;;;;;;15.60;5.43;;;;;;;-145.50;100.00;65435.88;5047066;28;20098;-74
2023/10/08 03:36:49;;;;;;;16.60;6.27;;;;;;;-145.50;100.00;65435.88;5054660;28;20420;-73
2023/10/08 03:39:20;;;;;;;17.15;6.28;;;;;;;-145.50;100.00;65435.88;5050220;28;20056;-73
2023/10/08 03:42:06;;;;;;;18.40;6.13;;;;;;;-145.50;100.00;65435.88;5044913;28;20084;-73
2023/10/08 03:44:37;;;;;;;20.27;6.40;;;;;;;-145.50;100.00;65435.88;5053615;28;20049;-73
2023/10/08 03:47:10;;;;;;;19.75;6.00;;;;;;;-145.50;100.00;65435.88;5035385;28;20048;-73
2023/10/08 03:49:45;;;;;;;19.42;6.75;;;;;;;-145.50;100.00;65435.88;5051711;28;20053;-73
2023/10/08 03:52:15;;;;;;;17.83;6.28;;;;;;;-145.50;100.00;65435.88;5044414;28;20060;-73
2023/10/08 03:57:41;;;;;;;16.90;6.32;;;;;;;-145.50;100.00;65435.88;5059337;28;20056;-73
2023/10/08 04:00:14;;;;;;;13.02;5.47;;;;;;;-145.50;100.00;65435.88;5035159;28;20164;-74
2023/10/08 04:02:46;;;;;;;16.00;5.75;;;;;;;-145.50;100.00;65435.88;5052462;28;20056;-73
2023/10/08 04:05:19;;;;;;;17.10;6.10;;;;;;;-145.50;100.00;65435.88;5037922;28;20447;-73
2023/10/08 04:10:49;;;;;;;25.05;7.07;;;;;;;-145.50;100.00;65435.88;5055471;28;20352;-73
2023/10/08 04:13:16;;;;;;;22.70;7.07;;;;;;;-145.50;100.00;65435.88;5055492;28;20052;-73
2023/10/08 04:15:42;;;;;;;17.33;6.25;;;;;;;-145.50;100.00;65435.88;5040546;28;20174;-73
2023/10/08 04:18:11;;;;;;;22.63;6.57;;;;;;;-145.50;100.00;65435.88;5049663;28;20060;-74
2023/10/08 04:23:13;;;;;;;18.75;7.30;;;;;;;-145.50;100.00;65435.88;5043217;28;20102;-73
2023/10/08 04:25:43;;;;;;;21.58;7.47;;;;;;;-145.50;100.00;65435.88;5063102;28;20060;-73
2023/10/08 04:28:14;;;;;;;18.60;6.40;;;;;;;-145.50;100.00;65435.88;5041473;28;20080;-74
2023/10/08 04:30:41;;;;;;;18.85;7.20;;;;;;;-145.50;100.00;65435.88;5045353;28;20079;-73
2023/10/08 04:33:12;;;;;;;22.23;8.00;;;;;;;-145.50;100.00;65435.88;5053063;28;20410;-73
2023/10/08 04:36:01;;;;;;;17.55;6.65;;;;;;;-145.50;100.00;65435.88;5065976;28;20421;-73
2023/10/08 04:38:28;;;;;;;19.50;7.47;;;;;;;-145.50;100.00;65435.88;5051466;28;20052;-73
2023/10/08 04:41:01;;;;;;;17.92;7.25;;;;;;;-145.50;100.00;65435.88;5062665;28;20151;-73
2023/10/08 04:43:30;;;;;;;19.92;7.53;;;;;;;-145.50;100.00;65435.88;5060808;28;20327;-74
2023/10/08 04:45:58;;;;;;;17.13;5.72;;;;;;;-145.50;100.00;65435.88;5057190;28;20044;-73
2023/10/08 04:48:29;;;;;;;15.18;5.75;;;;;;;-145.50;100.00;65435.88;5054522;28;20049;-74
2023/10/08 04:50:59;;;;;;;20.63;5.40;;;;;;;-145.50;100.00;65435.88;5052144;28;20488;-73
2023/10/08 04:53:36;;;;;;;19.60;5.05;;;;;;;-145.50;100.00;65435.88;5050304;28;20065;-74
2023/10/08 04:56:05;;;;;;;;;;;;;;;-145.50;100.00;65435.88;5051426;28;20045;-74
2023/10/08 04:58:36;;;;;;;12.02;4.03;;;;;;;-145.50;100.00;65435.88;5050656;28;20601;-73
2023/10/08 05:01:20;;;;;;;15.35;4.65;;;;;;;-145.50;100.00;65435.88;5052977;28;20140;-73
2023/10/08 05:14:36;;;;;;;15.35;4.43;;;;;;;-145.50;100.00;65435.88;5044795;28;20045;-73
2023/10/08 05:19:50;;;;;;;16.95;4.38;;;;;;;-145.50;100.00;65435.88;5054403;28;20060;-74
2023/10/08 05:22:21;;;;;;;13.98;4.25;;;;;;;-145.50;100.00;65435.88;5053664;28;20107;-74
2023/10/08 05:25:08;;;;;;;14.90;3.95;;;;;;;-145.50;100.00;65435.88;5060832;28;20052;-74
2023/10/08 05:27:56;;;;;;;17.08;4.60;;;;;;;-145.50;100.00;65435.88;5057763;28;20056;-73
2023/10/08 05:38:37;;;;;;;;;;;;;;;-145.50;100.00;65435.88;5043356;28;20417;-74
2023/10/08 05:41:05;;;;;;;11.43;3.53;;;;;;;-145.50;100.00;65435.88;5055276;28;20007;-74
2023/10/08 05:49:26;;;;;;;13.18;3.85;;;;;;;-145.50;100.00;65435.88;5048769;28;20052;-74
2023/10/08 06:10:42;;;;;;;10.30;2.88;;;;;;;-145.50;100.00;65435.88;5056012;28;20052;-73
2023/10/08 06:13:16;;;;;;;9.25;2.70;;;;;;;-145.50;100.00;65435.88;5049460;28;20101;-74
2023/10/08 06:15:48;;;;;;;9.43;3.10;;;;;;;-145.50;100.00;65435.88;5058789;28;20339;-73
2023/10/08 06:18:17;;;;;;;10.45;3.25;;;;;;;-145.50;100.00;65435.88;5054111;28;20045;-73
2023/10/08 06:20:45;;;;;;;8.00;2.78;;;;;;;-145.50;100.00;65435.88;5056106;28;20148;-74
2023/10/08 06:23:17;;;;;;;9.70;2.90;;;;;;;-145.50;100.00;65435.88;5037197;28;20056;-74
2023/10/08 06:25:46;;;;;;;8.23;2.95;;;;;;;-145.50;100.00;65435.88;5050854;28;20044;-74
2023/10/08 06:28:19;;;;;;;9.82;2.67;;;;;;;-145.50;100.00;65435.88;5054757;28;20508;-74
2023/10/08 06:30:47;;;;;;;9.18;2.47;;;;;;;-145.50;100.00;65435.88;5058563;28;20068;-74
2023/10/08 06:33:14;;;;;;;9.13;2.17;;;;;;;-145.50;100.00;65435.88;5046164;28;20041;-73
2023/10/08 06:35:44;;;;;;;9.48;2.72;;;;;;;-145.50;100.00;65435.88;5049189;28;20063;-74
2023/10/08 06:38:14;;;;;;;8.73;2.60;;;;;;;-145.50;100.00;65435.88;5054160;28;20045;-74
2023/10/08 06:40:42;;;;;;;8.45;2.47;;;;;;;-145.50;100.00;65435.88;5040034;28;20387;-73
2023/10/08 06:43:14;;;;;;;7.20;2.50;;;;;;;-145.50;100.00;65435.88;5049152;28;20041;-73
2023/10/08 06:45:44;;;;;;;10.15;2.80;;;;;;;-145.50;100.00;65435.88;5046440;28;20548;-73
2023/10/08 06:48:18;;;;;;;5.15;2.33;;;;;;;-145.50;100.00;65435.88;5048021;28;20051;-74
2023/10/08 06:50:45;;;;;;;7.70;2.67;;;;;;;-145.50;100.00;65435.88;5058459;28;20139;-74
2023/10/08 06:53:17;;;;;;;5.72;2.42;;;;;;;-145.50;100.00;65435.88;5051196;28;20079;-74
2023/10/08 06:55:44;;;;;;;11.07;2.63;;;;;;;-145.50;100.00;65435.88;5062499;28;20056;-73
2023/10/08 06:58:11;;;;;;;8.02;2.60;;;;;;;-145.50;100.00;65435.88;5058247;28;20036;-74
2023/10/08 07:00:48;;;;;;;6.50;2.20;;;;;;;-145.50;100.00;65435.88;5064077;28;20048;-74
2023/10/08 07:03:17;;;;;;;9.05;2.65;;;;;;;-145.50;100.00;65435.88;5041991;28;20091;-74
2023/10/08 07:05:59;;;;;;;5.45;2.40;;;;;;;-145.50;100.00;65435.88;5050393;28;20044;-74
2023/10/08 07:08:32;;;;;;;6.32;3.65;;;;;;;-145.50;100.00;65435.88;5056253;28;20060;-74
2023/10/08 07:11:05;;;;;;;5.40;3.42;;;;;;;-145.50;100.00;65435.88;5064014;28;20127;-74
2023/10/08 07:13:35;;;;;;;6.43;3.15;;;;;;;-145.50;100.00;65435.88;5057951;28;20045;-73
2023/10/08 07:16:04;;;;;;;7.53;3.45;;;;;;;-145.50;100.00;65435.88;5053047;28;20049;-74
2023/10/08 07:18:33;;;;;;;5.32;3.05;;;;;;;-145.50;100.00;65435.88;5049306;28;20055;-73
2023/10/08 07:21:11;;;;;;;8.65;4.07;;;;;;;-145.50;100.00;65435.88;5040562;28;20135;-73
2023/10/08 07:23:55;;;;;;;6.40;3.70;;;;;;;-145.50;100.00;65435.88;5054495;28;20048;-73
2023/10/08 07:26:24;;;;;;;7.20;4.22;;;;;;;-145.50;100.00;65435.88;5053322;28;20049;-73
2023/10/08 07:28:55;;;;;;;6.32;4.10;;;;;;;-145.50;100.00;65435.88;5066311;28;20060;-73
2023/10/08 07:31:23;;;;;;;6.20;3.53;;;;;;;-145.50;100.00;65435.88;5064048;28;20045;-73
2023/10/08 07:33:56;;;;;;;8.48;3.95;;;;;;;-145.50;100.00;65435.88;5042076;28;20109;-73
2023/10/08 07:36:24;;;;;;;8.65;3.70;;;;;;;-145.50;100.00;65435.88;5057005;28;20514;-74
2023/10/08 07:38:52;;;;;;;7.97;4.22;;;;;;;-145.50;100.00;65435.88;5051769;28;20053;-73
2023/10/08 07:41:20;;;;;;;7.33;3.97;;;;;;;-145.50;100.00;65435.88;5060555;28;20080;-74
2023/10/08 07:43:55;;;;;;;6.90;3.40;;;;;;;-145.50;100.00;65435.88;5051269;28;20040;-74
2023/10/08 07:46:22;;;;;;;6.60;4.03;;;;;;;-145.50;100.00;65435.88;5053645;28;20071;-74
2023/10/08 07:48:50;;;;;;;6.03;4.22;;;;;;;-145.50;100.00;65435.88;5049134;28;20147;-74
2023/10/08 07:51:23;;;;;;;7.72;4.22;;;;;;;-145.50;100.00;65435.88;5041176;28;20048;-73
2023/10/08 07:53:55;;;;;;;9.45;4.53;;;;;;;-145.50;100.00;65435.88;5058806;28;20075;-73
2023/10/08 07:56:26;;;;;;;9.00;3.80;;;;;;;-145.50;100.00;65435.88;5046174;28;20059;-74
2023/10/08 07:58:56;;;;;;;6.93;4.53;;;;;;;-145.50;100.00;65435.88;5060233;28;20048;-74
2023/10/08 08:01:24;;;;;;;6.10;4.22;;;;;;;-145.50;100.00;65435.88;5049642;28;20044;-74
2023/10/08 08:03:51;;;;;;;;;;;;;;;-145.50;100.00;65435.88;5048287;28;20074;-74
2023/10/08 08:06:18;;;;;;;8.35;4.63;;;;;;;-145.50;100.00;65435.88;5060509;28;20310;-73
2023/10/08 08:08:45;;;;;;;8.82;4.78;;;;;;;-145.50;100.00;65435.88;5060656;28;20045;-73
2023/10/08 08:11:17;;;;;;;9.50;5.45;;;;;;;-145.50;100.00;65435.88;5062212;28;20048;-74
2023/10/08 08:13:45;;;;;;;8.45;5.00;;;;;;;-145.50;100.00;65435.88;5054542;28;20239;-73
2023/10/08 08:16:20;;;;;;;8.65;4.93;;;;;;;-145.50;100.00;65435.88;5052647;28;20052;-73
2023/10/08 08:18:51;;;;;;;7.78;3.85;;;;;;;-145.50;100.00;65435.88;5045574;28;20103;-73
2023/10/08 08:21:19;;;;;;;10.63;4.30;;;;;;;-145.50;100.00;65435.88;5052128;28;20060;-72
2023/10/08 08:23:50;;;;;;;8.85;3.00;;;;;;;-145.50;100.00;65435.88;5053462;28;20455;-73
2023/10/08 08:26:28;;;;;;;6.63;3.30;;;;;;;-145.50;100.00;65435.88;5057927;28;20152;-73
2023/10/08 08:29:02;;;;;;;8.77;3.75;;;;;;;-145.50;100.00;65435.88;5047840;28;20053;-73
2023/10/08 08:31:35;;;;;;;7.85;4.15;;;;;;;-145.50;100.00;65435.88;5043753;28;20052;-73
2023/10/08 08:34:03;;;;;;;7.10;3.67;;;;;;;-145.50;100.00;65435.88;5052035;28;20084;-73
2023/10/08 08:36:31;;;;;;;7.50;3.50;;;;;;;-145.50;100.00;65435.88;5055059;28;20049;-73
2023/10/08 08:38:58;;;;;;;6.78;3.75;;;;;;;-145.50;100.00;65435.88;5045383;28;20069;-73
2023/10/08 08:41:25;;;;;;;7.43;3.90;;;;;;;-145.50;100.00;65435.88;5042318;28;20581;-72
2023/10/08 08:43:58;;;;;;;9.00;3.50;;;;;;;-145.50;100.00;65435.88;5039690;28;20493;-73
2023/10/08 08:46:30;;;;;;;6.57;3.25;;;;;;;-145.50;100.00;65435.88;5057078;28;20044;-72
2023/10/08 08:49:07;;;;;;;8.05;3.13;;;;;;;-145.50;100.00;65435.88;5055737;28;20045;-73
2023/10/08 08:51:35;;;;;;;8.13;3.10;;;;;;;-145.50;100.00;65435.88;5056698;28;20072;-72
2023/10/08 08:54:06;;;;;;;7.47;3.53;;;;;;;-145.50;100.00;65435.88;5053903;28;20148;-73
2023/10/08 08:56:34;;;;;;;9.60;2.90;;;;;;;-145.50;100.00;65435.88;5054584;28;20059;-73
2023/10/08 08:59:01;;;;;;;8.30;2.67;;;;;;;-145.50;100.00;65435.88;5051266;28;20059;-73
2023/10/08 09:01:30;;;;;;;7.13;2.97;;;;;;;-145.50;100.00;65435.88;5050707;28;20094;-72
2023/10/08 09:04:02;;;;;;;6.47;2.55;;;;;;;-145.50;100.00;65435.88;5060133;28;20049;-73
2023/10/08 09:06:28;;;;;;;4.88;2.65;;;;;;;-145.50;100.00;65435.88;5036286;28;20111;-73
2023/10/08 09:09:11;;;;;;;6.90;2.95;;;;;;;-145.50;100.00;65435.88;5057044;28;20771;-72
2023/10/08 09:11:42;;;;;;;5.22;2.60;;;;;;;-145.50;100.00;65435.88;5050190;28;20056;-72
2023/10/08 09:14:10;;;;;;;6.43;2.30;;;;;;;-145.50;100.00;65435.88;5061989;28;20471;-73
2023/10/08 09:16:37;;;;;;;7.55;3.45;;;;;;;-145.50;100.00;65435.88;5059379;28;20418;-73
2023/10/08 09:19:11;;;;;;;8.63;2.33;;;;;;;-145.50;100.00;65435.88;5061925;28;20052;-72
2023/10/08 09:21:38;;;;;;;7.47;2.17;;;;;;;-145.50;100.00;65435.88;5053153;28;20159;-72
2023/10/08 09:24:10;;;;;;;5.22;1.80;;;;;;;-145.50;100.00;65435.88;5054560;28;20056;-73
2023/10/08 09:26:37;;;;;;;7.90;2.47;;;;;;;-145.50;100.00;65435.88;5048403;28;20057;-72
2023/10/08 09:29:08;;;;;;;6.03;2.20;;;;;;;-145.50;100.00;65435.88;5053700;28;20052;-73
2023/10/08 09:31:35;;;;;;;6.70;2.10;;;;;;;-145.50;100.00;65435.88;5061746;28;20084;-72
2023/10/08 09:34:03;;;;;;;6.75;1.92;;;;;;;-145.50;100.00;65435.88;5042040;28;20069;-73
2023/10/08 09:36:31;;;;;;;4.90;1.50;;;;;;;-145.50;100.00;65435.88;5053939;28;20325;-73
2023/10/08 09:39:04;;;;;;;5.75;1.65;;;;;;;-145.50;100.00;65435.88;5045607;28;20049;-73
2023/10/08 09:41:32;;;;;;;4.93;1.40;;;;;;;-145.50;100.00;65435.88;5057424;28;20059;-72
2023/10/08 09:43:59;;;;;;;3.33;1.55;;;;;;;-145.50;100.00;65435.88;5052778;28;20409;-73
2023/10/08 09:46:33;;;;;;;5.82;1.58;;;;;;;-145.50;100.00;65435.88;5040472;28;20500;-72
2023/10/08 09:49:01;;;;;;;4.90;1.63;;;;;;;-145.50;100.00;65435.88;5055653;28;20056;-72
2023/10/08 09:51:32;;;;;;;4.45;1.60;;;;;;;-145.50;100.00;65435.88;5049749;28;20055;-72
2023/10/08 09:54:13;;;;;;;2.40;1.27;;;;;;;-145.50;100.00;65435.88;5059907;28;20486;-72
2023/10/08 09:56:43;;;;;;;4.07;1.50;;;;;;;-145.50;100.00;65435.88;5052428;28;20163;-72
2023/10/08 09:59:11;;;;;;;4.30;1.73;;;;;;;-145.50;100.00;65435.88;5051172;28;20082;-72
2023/10/08 10:01:40;;;;;;;5.05;1.40;;;;;;;-145.50;100.00;65435.88;5054846;28;20049;-72
2023/10/08 10:04:11;;;;;;;5.47;1.60;;;;;;;-145.50;100.00;65435.88;5042592;28;20422;-73
2023/10/08 10:06:39;;;;;;;3.88;1.67;;;;;;;-145.50;100.00;65435.88;5046597;28;20520;-73
2023/10/08 10:09:15;;;;;;;9.75;1.73;;;;;;;-145.50;100.00;65435.88;5057485;28;20429;-73
2023/10/08 10:11:55;;;;;;;6.20;2.10;;;;;;;-145.50;100.00;65435.88;5058526;28;20114;-73
2023/10/08 10:14:23;;;;;;;3.95;1.40;;;;;;;-145.50;100.00;65435.88;5053048;28;20127;-72
2023/10/08 10:17:11;;;;;;;4.28;1.60;;;;;;;-145.50;100.00;65435.88;5058480;28;20058;-72
2023/10/08 10:19:45;;;;;;;5.78;1.80;;;;;;;-145.50;100.00;65435.88;5045091;28;20048;-73
2023/10/08 10:22:27;;;;;;;3.85;1.50;;;;;;;-145.50;100.00;65435.88;5044319;28;20354;-72
2023/10/08 10:24:56;;;;;;;4.53;1.50;;;;;;;-145.50;100.00;65435.88;5048299;28;20041;-73
2023/10/08 10:27:23;;;;;;;5.45;1.60;;;;;;;-145.50;100.00;65435.88;5055117;28;20056;-73
2023/10/08 10:29:49;;;;;;;3.80;1.42;;;;;;;-145.50;100.00;65435.88;5054740;28;20059;-72
2023/10/08 10:32:16;;;;;;;3.58;2.50;;;;;;;-145.50;100.00;65435.88;5047666;28;20049;-73
2023/10/08 10:34:44;;;;;;;6.45;2.20;;;;;;;-145.50;100.00;65435.88;5060940;28;20052;-72
2023/10/08 10:37:19;;;;;;;3.83;1.52;;;;;;;-145.50;100.00;65435.88;5063120;28;20379;-73
2023/10/08 10:39:55;;;;;;;4.43;1.77;;;;;;;-145.50;100.00;65435.88;5051829;28;20098;-73
2023/10/08 10:42:22;;;;;;;4.05;1.40;;;;;;;-145.50;100.00;65435.88;5059612;28;20063;-74
2023/10/08 10:44:49;;;;;;;4.53;1.60;;;;;;;-145.50;100.00;65435.88;5055502;28;20060;-73
2023/10/08 10:52:44;;;;;;;2.95;1.35;;;;;;;-145.50;100.00;65435.88;5060780;28;20048;-73
2023/10/08 10:58:11;;;;;;;3.13;1.63;;;;;;;-145.50;100.00;65435.88;5056649;28;20118;-73
2023/10/08 11:03:25;;;;;;;3.38;1.20;;;;;;;-145.50;100.00;65435.88;5062057;28;20044;-73
2023/10/08 11:05:59;;;;;;;6.68;1.90;;;;;;;-145.50;100.00;65435.88;5050274;28;20053;-72
2023/10/08 11:08:34;;;;;;;2.60;1.67;;;;;;;-145.50;100.00;65435.88;5052028;28;20444;-73
2023/10/08 11:11:05;;;;;;;3.60;1.75;;;;;;;-145.50;100.00;65435.88;5067103;28;20409;-73
2023/10/08 11:13:38;;;;;;;7.60;1.90;;;;;;;-145.50;100.00;65435.88;5048319;28;20052;-72
2023/10/08 11:16:13;;;;;;;3.42;1.70;;;;;;;-145.50;100.00;65435.88;5052330;28;20062;-73
2023/10/08 11:18:47;;;;;;;2.47;1.33;;;;;;;-145.50;100.00;65435.88;5059333;28;20495;-73
2023/10/08 11:21:15;;;;;;;5.10;1.65;;;;;;;-145.50;100.00;65435.88;5053060;28;20049;-73
2023/10/08 11:23:55;;;;;;;6.72;1.98;;;;;;;-145.50;100.00;65435.88;5059852;28;20049;-73
2023/10/08 11:26:31;;;;;;;2.65;1.60;;;;;;;-145.50;100.00;65435.88;5060706;28;20049;-73
2023/10/08 11:29:03;;;;;;;3.15;1.63;;;;;;;-145.50;100.00;65435.88;5051013;28;20045;-73
2023/10/08 11:31:33;;;;;;;2.30;1.30;;;;;;;-145.50;100.00;65435.88;5057326;28;20045;-73
2023/10/08 11:34:08;;;;;;;4.07;1.40;;;;;;;-145.50;100.00;65435.88;5066744;28;20048;-73
2023/10/08 11:36:52;;;;;;;4.38;1.40;;;;;;;-145.50;100.00;65435.88;5059942;28;20087;-73
2023/10/08 11:39:29;;;;;;;3.10;1.48;;;;;;;-145.50;100.00;65435.88;5057472;28;20055;-73
2023/10/08 11:41:57;;;;;;;2.88;1.77;;;;;;;-145.50;100.00;65435.88;5052162;28;20124;-72
2023/10/08 11:44:30;;;;;;;2.55;1.23;;;;;;;-145.50;100.00;65435.88;5057276;28;20053;-73
2023/10/08 11:47:04;;;;;;;5.00;2.10;;;;;;;-145.50;100.00;65435.88;5060701;28;20168;-75
2023/10/08 11:49:36;;;;;;;5.43;2.67;;;;;;;-145.50;100.00;65435.88;5054813;28;20048;-71
2023/10/08 11:52:03;;;;;;;3.25;1.30;;;;;;;-145.50;100.00;65435.88;5057226;28;20059;-72
2023/10/08 11:54:32;;;;;;;2.43;1.60;;;;;;;-145.50;100.00;65435.88;5044151;28;20053;-72
2023/10/08 11:57:02;;;;;;;3.08;1.63;;;;;;;-145.50;100.00;65435.88;5061361;28;20292;-71
2023/10/08 11:59:29;;;;;;;3.33;1.67;;;;;;;-145.50;100.00;65435.88;5057029;28;20250;-72
2023/10/08 12:01:56;;;;;;;4.00;1.80;;;;;;;-145.50;100.00;65435.88;5077726;28;20028;-72
2023/10/08 12:04:23;;;;;;;4.78;1.70;;;;;;;-145.50;100.00;65435.88;5084031;28;20040;-72
2023/10/08 12:06:52;;;;;;;2.28;1.23;;;;;;;-145.50;100.00;65435.88;5068211;28;20063;-72
2023/10/08 12:09:21;;;;;;;3.15;1.75;;;;;;;-145.50;100.00;65435.88;5063917;28;20044;-72
2023/10/08 12:11:48;;;;;;;3.50;1.60;;;;;;;-145.50;100.00;65435.88;5046836;28;20059;-71
2023/10/08 12:14:15;;;;;;;3.50;1.58;;;;;;;-145.50;100.00;65435.88;5058456;28;20473;-74
2023/10/08 12:16:43;;;;;;;4.07;1.73;;;;;;;-145.50;100.00;65435.88;5047589;28;20048;-72
2023/10/08 12:19:15;;;;;;;3.40;1.70;;;;;;;-145.50;100.00;65435.88;5057038;28;20044;-72
2023/10/08 12:21:46;;;;;;;6.57;1.83;;;;;;;-145.50;100.00;65435.88;5047329;28;20486;-72
2023/10/08 12:24:13;;;;;;;4.30;1.77;;;;;;;-145.50;100.00;65435.88;5054008;28;20041;-73
2023/10/08 12:26:47;;;;;;;5.10;2.20;;;;;;;-145.50;100.00;65435.88;5062842;28;20049;-73
2023/10/08 12:29:14;;;;;;;5.80;2.08;;;;;;;-145.50;100.00;65435.88;5044195;28;20170;-72
2023/10/08 12:31:41;;;;;;;6.25;3.70;;;;;;;-145.50;100.00;65435.88;5064457;28;20048;-72
2023/10/08 12:34:11;;;;;;;3.85;1.88;;;;;;;-145.50;100.00;65435.88;5052746;28;20449;-73
2023/10/08 12:36:38;;;;;;;3.58;2.10;;;;;;;-145.50;100.00;65435.88;5061235;28;20053;-72
2023/10/08 12:39:14;;;;;;;3.00;2.33;;;;;;;-145.50;100.00;65435.88;5054396;28;20053;-72